sensor_id;sensor_type;location;lat;lon;timestamp;pressure;altitude;pressure_sealevel;temperature;humidity
13690;BME280;6917;52.194;9.894;2023-01-25T00:01:31;102581.22;;;-0.67;100.00
13690;BME280;6917;52.194;9.894;2023-01-25T00:03:57;102570.09;;;-0.64;100.00
13690;BME280;6917;52.194;9.894;2023-01-25T00:06:22;102572.97;;;-0.66;100.00
13690;BME280;6917;52.194;9.894;2023-01-25T00:08:49;102574.56;;;-0.71;100.00
13690;BME280;6917;52.194;9.894;2023-01-25T00:11:14;102562.81;;;-0.70;100.00
13690;BME280;6917;52.194;9.894;2023-01-25T00:13:41;102561.28;;;-0.73;100.00
13690;BME280;6917;52.194;9.894;2023-01-25T00:16:06;102560.94;;;-0.70;100.00
13690;BME280;6917;52.194;9.894;2023-01-25T00:18:32;102560.38;;;-0.65;100.00
13690;BME280;6917;52.194;9.894;2023-01-25T00:20:57;102556.94;;;-0.74;100.00
13690;BME280;6917;52.194;9.894;2023-01-25T00:23:22;102557.78;;;-0.73;100.00
13690;BME280;6917;52.194;9.894;2023-01-25T00:25:48;102552.78;;;-0.62;100.00
13690;BME280;6917;52.194;9.894;2023-01-25T00:28:13;102546.41;;;-0.75;100.00
13690;BME280;6917;52.194;9.894;2023-01-25T00:30:38;102538.34;;;-0.75;100.00
13690;BME280;6917;52.194;9.894;2023-01-25T00:35:43;102530.94;;;-0.73;100.00
13690;BME280;6917;52.194;9.894;2023-01-25T00:38:26;102536.22;;;-0.80;100.00
13690;BME280;6917;52.194;9.894;2023-01-25T00:40:52;102532.53;;;-0.79;100.00
13690;BME280;6917;52.194;9.894;2023-01-25T00:43:18;102533.16;;;-0.77;100.00
13690;BME280;6917;52.194;9.894;2023-01-25T00:45:43;102524.66;;;-0.80;100.00
13690;BME280;6917;52.194;9.894;2023-01-25T00:48:09;102525.75;;;-0.75;100.00
13690;BME280;6917;52.194;9.894;2023-01-25T00:50:36;102523.56;;;-0.71;100.00
13690;BME280;6917;52.194;9.894;2023-01-25T00:53:01;102515.97;;;-0.68;100.00
13690;BME280;6917;52.194;9.894;2023-01-25T00:55:26;102518.00;;;-0.55;100.00
13690;BME280;6917;52.194;9.894;2023-01-25T00:57:52;102509.66;;;-0.75;100.00
13690;BME280;6917;52.194;9.894;2023-01-25T01:00:17;102512.16;;;-0.88;100.00
13690;BME280;6917;52.194;9.894;2023-01-25T01:02:42;102511.50;;;-0.90;100.00
13690;BME280;6917;52.194;9.894;2023-01-25T01:05:08;102510.41;;;-0.96;100.00
13690;BME280;6917;52.194;9.894;2023-01-25T01:07:33;102510.16;;;-1.01;100.00
13690;BME280;6917;52.194;9.894;2023-01-25T01:09:58;102516.34;;;-1.00;100.00
13690;BME280;6917;52.194;9.894;2023-01-25T01:12:24;102517.50;;;-1.03;100.00
13690;BME280;6917;52.194;9.894;2023-01-25T01:14:49;102526.41;;;-0.87;100.00
13690;BME280;6917;52.194;9.894;2023-01-25T01:17:15;102518.19;;;-0.86;100.00
13690;BME280;6917;52.194;9.894;2023-01-25T01:19:40;102509.78;;;-0.83;100.00
13690;BME280;6917;52.194;9.894;2023-01-25T01:22:05;102517.91;;;-0.76;100.00
13690;BME280;6917;52.194;9.894;2023-01-25T01:24:31;102506.06;;;-0.97;100.00
13690;BME280;6917;52.194;9.894;2023-01-25T01:26:56;102510.88;;;-0.92;100.00
13690;BME280;6917;52.194;9.894;2023-01-25T01:29:21;102508.28;;;-1.00;100.00
13690;BME280;6917;52.194;9.894;2023-01-25T01:31:49;102508.19;;;-1.07;100.00
13690;BME280;6917;52.194;9.894;2023-01-25T01:34:16;102494.38;;;-1.04;100.00
13690;BME280;6917;52.194;9.894;2023-01-25T01:36:41;102496.44;;;-1.06;100.00
13690;BME280;6917;52.194;9.894;2023-01-25T01:39:07;102496.81;;;-1.09;100.00
13690;BME280;6917;52.194;9.894;2023-01-25T01:41:33;102493.28;;;-0.95;100.00
13690;BME280;6917;52.194;9.894;2023-01-25T01:43:58;102499.41;;;-0.86;100.00
13690;BME280;6917;52.194;9.894;2023-01-25T01:46:31;102494.69;;;-0.84;100.00
13690;BME280;6917;52.194;9.894;2023-01-25T01:54:40;102488.31;;;-0.83;100.00
13690;BME280;6917;52.194;9.894;2023-01-25T01:59:36;102484.97;;;-0.70;100.00
13690;BME280;6917;52.194;9.894;2023-01-25T02:02:03;102473.84;;;-0.67;100.00
13690;BME280;6917;52.194;9.894;2023-01-25T02:04:29;102472.28;;;-0.62;100.00
13690;BME280;6917;52.194;9.894;2023-01-25T02:07:00;102479.41;;;-0.54;100.00
13690;BME280;6917;52.194;9.894;2023-01-25T02:09:28;102467.00;;;-0.55;100.00
13690;BME280;6917;52.194;9.894;2023-01-25T02:11:56;102467.91;;;-0.48;100.00
13690;BME280;6917;52.194;9.894;2023-01-25T02:14:24;102462.72;;;-0.49;100.00
13690;BME280;6917;52.194;9.894;2023-01-25T02:16:50;102469.56;;;-0.47;100.00
13690;BME280;6917;52.194;9.894;2023-01-25T02:19:31;102477.19;;;-0.65;100.00
13690;BME280;6917;52.194;9.894;2023-01-25T02:22:02;102471.34;;;-0.54;100.00
13690;BME280;6917;52.194;9.894;2023-01-25T02:24:32;102471.34;;;-0.54;100.00
13690;BME280;6917;52.194;9.894;2023-01-25T02:26:58;102464.00;;;-0.45;100.00
13690;BME280;6917;52.194;9.894;2023-01-25T02:29:25;102451.78;;;-0.48;100.00
13690;BME280;6917;52.194;9.894;2023-01-25T02:31:59;102455.31;;;-0.47;100.00
13690;BME280;6917;52.194;9.894;2023-01-25T02:34:26;102452.22;;;-0.44;100.00
13690;BME280;6917;52.194;9.894;2023-01-25T02:36:52;102452.22;;;-0.44;100.00
13690;BME280;6917;52.194;9.894;2023-01-25T02:39:17;102448.63;;;-0.37;100.00
13690;BME280;6917;52.194;9.894;2023-01-25T02:41:45;102452.66;;;-0.26;100.00
13690;BME280;6917;52.194;9.894;2023-01-25T02:44:16;102450.75;;;-0.47;100.00
13690;BME280;6917;52.194;9.894;2023-01-25T02:46:43;102457.56;;;-0.66;100.00
13690;BME280;6917;52.194;9.894;2023-01-25T02:49:13;102458.09;;;-0.41;100.00
13690;BME280;6917;52.194;9.894;2023-01-25T02:51:41;102457.94;;;-0.54;100.00
13690;BME280;6917;52.194;9.894;2023-01-25T02:54:09;102453.94;;;-0.58;100.00
13690;BME280;6917;52.194;9.894;2023-01-25T02:56:35;102446.56;;;-0.71;100.00
13690;BME280;6917;52.194;9.894;2023-01-25T02:59:00;102444.50;;;-0.54;100.00
13690;BME280;6917;52.194;9.894;2023-01-25T03:01:33;102446.03;;;-0.45;100.00
13690;BME280;6917;52.194;9.894;2023-01-25T03:03:59;102442.59;;;-0.39;100.00
13690;BME280;6917;52.194;9.894;2023-01-25T03:06:25;102435.44;;;-0.32;100.00
13690;BME280;6917;52.194;9.894;2023-01-25T03:08:50;102432.00;;;-0.25;100.00
13690;BME280;6917;52.194;9.894;2023-01-25T03:11:17;102430.53;;;-0.28;100.00
13690;BME280;6917;52.194;9.894;2023-01-25T03:13:42;102420.16;;;-0.52;100.00
13690;BME280;6917;52.194;9.894;2023-01-25T03:16:09;102419.81;;;-0.64;100.00
13690;BME280;6917;52.194;9.894;2023-01-25T03:18:36;102406.94;;;-0.69;100.00
13690;BME280;6917;52.194;9.894;2023-01-25T03:21:16;102408.44;;;-0.81;100.00
13690;BME280;6917;52.194;9.894;2023-01-25T03:23:43;102409.03;;;-0.85;100.00
13690;BME280;6917;52.194;9.894;2023-01-25T03:26:13;102401.13;;;-0.87;100.00
13690;BME280;6917;52.194;9.894;2023-01-25T03:28:40;102405.88;;;-0.89;100.00
13690;BME280;6917;52.194;9.894;2023-01-25T03:31:06;102402.16;;;-0.88;100.00
13690;BME280;6917;52.194;9.894;2023-01-25T03:33:32;102409.09;;;-0.79;100.00
13690;BME280;6917;52.194;9.894;2023-01-25T03:35:58;102408.16;;;-0.71;100.00
13690;BME280;6917;52.194;9.894;2023-01-25T03:38:24;102395.84;;;-0.66;100.00
13690;BME280;6917;52.194;9.894;2023-01-25T03:40:49;102402.81;;;-0.71;100.00
13690;BME280;6917;52.194;9.894;2023-01-25T03:43:15;102397.56;;;-0.94;100.00
13690;BME280;6917;52.194;9.894;2023-01-25T03:45:40;102396.09;;;-0.97;100.00
13690;BME280;6917;52.194;9.894;2023-01-25T03:48:06;102392.56;;;-0.97;100.00
13690;BME280;6917;52.194;9.894;2023-01-25T03:50:32;102406.63;;;-0.95;100.00
13690;BME280;6917;52.194;9.894;2023-01-25T03:52:57;102387.09;;;-0.89;100.00
13690;BME280;6917;52.194;9.894;2023-01-25T03:55:41;102384.38;;;-0.74;100.00
13690;BME280;6917;52.194;9.894;2023-01-25T03:58:06;102376.69;;;-0.77;100.00
13690;BME280;6917;52.194;9.894;2023-01-25T04:00:32;102375.31;;;-0.88;100.00
13690;BME280;6917;52.194;9.894;2023-01-25T04:02:57;102378.81;;;-0.73;100.00
13690;BME280;6917;52.194;9.894;2023-01-25T04:05:22;102371.91;;;-0.82;100.00
13690;BME280;6917;52.194;9.894;2023-01-25T04:07:47;102376.66;;;-0.63;100.00
13690;BME280;6917;52.194;9.894;2023-01-25T04:10:13;102369.06;;;-0.59;100.00
13690;BME280;6917;52.194;9.894;2023-01-25T04:12:38;102363.78;;;-0.52;100.00
13690;BME280;6917;52.194;9.894;2023-01-25T04:15:04;102360.69;;;-0.49;100.00
13690;BME280;6917;52.194;9.894;2023-01-25T04:17:29;102357.56;;;-0.53;100.00
13690;BME280;6917;52.194;9.894;2023-01-25T04:19:55;102358.91;;;-0.64;100.00
13690;BME280;6917;52.194;9.894;2023-01-25T04:22:20;102349.44;;;-0.60;100.00
13690;BME280;6917;52.194;9.894;2023-01-25T04:24:45;102351.97;;;-0.73;100.00
13690;BME280;6917;52.194;9.894;2023-01-25T04:27:11;102348.66;;;-0.75;100.00
13690;BME280;6917;52.194;9.894;2023-01-25T04:29:36;102345.72;;;-0.58;100.00
13690;BME280;6917;52.194;9.894;2023-01-25T04:32:01;102332.00;;;-0.49;100.00
13690;BME280;6917;52.194;9.894;2023-01-25T04:34:27;102341.53;;;-0.46;100.00
13690;BME280;6917;52.194;9.894;2023-01-25T04:36:52;102332.91;;;-0.42;100.00
13690;BME280;6917;52.194;9.894;2023-01-25T04:39:17;102342.34;;;-0.46;100.00
13690;BME280;6917;52.194;9.894;2023-01-25T04:41:43;102338.69;;;-0.60;100.00
13690;BME280;6917;52.194;9.894;2023-01-25T04:44:08;102333.84;;;-0.71;100.00
13690;BME280;6917;52.194;9.894;2023-01-25T04:46:34;102332.59;;;-0.53;100.00
13690;BME280;6917;52.194;9.894;2023-01-25T04:48:59;102330.78;;;-0.46;100.00
13690;BME280;6917;52.194;9.894;2023-01-25T04:51:24;102331.88;;;-0.41;100.00
13690;BME280;6917;52.194;9.894;2023-01-25T04:53:50;102334.00;;;-0.57;100.00
13690;BME280;6917;52.194;9.894;2023-01-25T04:56:15;102331.66;;;-0.61;100.00
13690;BME280;6917;52.194;9.894;2023-01-25T04:58:40;102326.44;;;-0.47;100.00
13690;BME280;6917;52.194;9.894;2023-01-25T05:01:06;102325.81;;;-0.49;100.00
13690;BME280;6917;52.194;9.894;2023-01-25T05:03:31;102322.47;;;-0.51;100.00
13690;BME280;6917;52.194;9.894;2023-01-25T05:05:57;102316.69;;;-0.55;100.00
13690;BME280;6917;52.194;9.894;2023-01-25T05:08:22;102320.75;;;-0.59;100.00
13690;BME280;6917;52.194;9.894;2023-01-25T05:10:47;102316.94;;;-0.71;100.00
13690;BME280;6917;52.194;9.894;2023-01-25T05:13:13;102319.78;;;-0.73;100.00
13690;BME280;6917;52.194;9.894;2023-01-25T05:15:38;102317.75;;;-0.71;100.00
13690;BME280;6917;52.194;9.894;2023-01-25T05:18:03;102319.59;;;-0.71;100.00
13690;BME280;6917;52.194;9.894;2023-01-25T05:20:29;102314.28;;;-0.65;100.00
13690;BME280;6917;52.194;9.894;2023-01-25T05:22:54;102316.19;;;-0.58;100.00
13690;BME280;6917;52.194;9.894;2023-01-25T05:25:19;102307.16;;;-0.57;100.00
13690;BME280;6917;52.194;9.894;2023-01-25T05:28:04;102297.25;;;-0.57;100.00
13690;BME280;6917;52.194;9.894;2023-01-25T05:30:31;102299.28;;;-0.59;100.00
13690;BME280;6917;52.194;9.894;2023-01-25T05:32:56;102295.50;;;-0.65;100.00
13690;BME280;6917;52.194;9.894;2023-01-25T05:35:21;102298.00;;;-0.63;100.00
13690;BME280;6917;52.194;9.894;2023-01-25T05:37:47;102290.53;;;-0.68;100.00
13690;BME280;6917;52.194;9.894;2023-01-25T05:40:12;102298.31;;;-0.73;100.00
13690;BME280;6917;52.194;9.894;2023-01-25T05:42:38;102290.09;;;-0.71;100.00
13690;BME280;6917;52.194;9.894;2023-01-25T05:45:03;102286.06;;;-0.82;100.00
13690;BME280;6917;52.194;9.894;2023-01-25T05:47:29;102291.22;;;-0.80;100.00
13690;BME280;6917;52.194;9.894;2023-01-25T05:49:54;102285.59;;;-0.85;100.00
13690;BME280;6917;52.194;9.894;2023-01-25T05:52:19;102278.75;;;-0.88;100.00
13690;BME280;6917;52.194;9.894;2023-01-25T05:54:45;102282.44;;;-0.89;100.00
13690;BME280;6917;52.194;9.894;2023-01-25T05:57:12;102284.13;;;-0.88;100.00
13690;BME280;6917;52.194;9.894;2023-01-25T05:59:38;102281.72;;;-0.83;100.00
13690;BME280;6917;52.194;9.894;2023-01-25T06:02:03;102280.25;;;-0.85;100.00
13690;BME280;6917;52.194;9.894;2023-01-25T06:04:28;102284.00;;;-0.80;100.00
13690;BME280;6917;52.194;9.894;2023-01-25T06:06:54;102284.72;;;-0.71;100.00
13690;BME280;6917;52.194;9.894;2023-01-25T06:09:19;102284.13;;;-0.67;100.00
13690;BME280;6917;52.194;9.894;2023-01-25T06:11:44;102281.97;;;-0.56;100.00
13690;BME280;6917;52.194;9.894;2023-01-25T06:14:10;102277.25;;;-0.54;100.00
13690;BME280;6917;52.194;9.894;2023-01-25T06:16:35;102271.91;;;-0.48;100.00
13690;BME280;6917;52.194;9.894;2023-01-25T06:19:03;102278.75;;;-0.45;100.00
13690;BME280;6917;52.194;9.894;2023-01-25T06:21:29;102263.03;;;-0.48;100.00
13690;BME280;6917;52.194;9.894;2023-01-25T06:23:54;102262.59;;;-0.52;100.00
13690;BME280;6917;52.194;9.894;2023-01-25T06:26:19;102269.38;;;-0.56;100.00
13690;BME280;6917;52.194;9.894;2023-01-25T06:28:45;102266.31;;;-0.53;100.00
13690;BME280;6917;52.194;9.894;2023-01-25T06:31:13;102262.22;;;-0.70;100.00
13690;BME280;6917;52.194;9.894;2023-01-25T06:33:40;102266.44;;;-0.82;100.00
13690;BME280;6917;52.194;9.894;2023-01-25T06:36:11;102275.31;;;-0.82;100.00
13690;BME280;6917;52.194;9.894;2023-01-25T06:38:38;102261.50;;;-0.79;100.00
13690;BME280;6917;52.194;9.894;2023-01-25T06:41:05;102266.69;;;-0.77;100.00
13690;BME280;6917;52.194;9.894;2023-01-25T06:43:32;102258.19;;;-0.81;100.00
13690;BME280;6917;52.194;9.894;2023-01-25T06:46:02;102260.50;;;-0.78;100.00
13690;BME280;6917;52.194;9.894;2023-01-25T06:48:30;102259.34;;;-0.69;100.00
13690;BME280;6917;52.194;9.894;2023-01-25T06:50:58;102254.19;;;-0.70;100.00
13690;BME280;6917;52.194;9.894;2023-01-25T06:53:25;102262.16;;;-0.55;100.00
13690;BME280;6917;52.194;9.894;2023-01-25T06:55:58;102255.56;;;-0.53;100.00
13690;BME280;6917;52.194;9.894;2023-01-25T06:58:25;102269.22;;;-0.48;100.00
13690;BME280;6917;52.194;9.894;2023-01-25T07:00:51;102266.34;;;-0.46;100.00
13690;BME280;6917;52.194;9.894;2023-01-25T07:03:16;102263.66;;;-0.46;100.00
13690;BME280;6917;52.194;9.894;2023-01-25T07:05:41;102267.78;;;-0.50;100.00
13690;BME280;6917;52.194;9.894;2023-01-25T07:08:07;102261.56;;;-0.51;100.00
13690;BME280;6917;52.194;9.894;2023-01-25T07:10:32;102274.34;;;-0.53;100.00
13690;BME280;6917;52.194;9.894;2023-01-25T07:12:57;102253.34;;;-0.71;100.00
13690;BME280;6917;52.194;9.894;2023-01-25T07:15:23;102256.03;;;-0.71;100.00
13690;BME280;6917;52.194;9.894;2023-01-25T07:17:48;102258.53;;;-0.69;100.00
13690;BME280;6917;52.194;9.894;2023-01-25T07:20:14;102251.31;;;-0.69;100.00
13690;BME280;6917;52.194;9.894;2023-01-25T07:22:39;102253.97;;;-0.69;100.00
13690;BME280;6917;52.194;9.894;2023-01-25T07:25:05;102253.16;;;-0.69;100.00
13690;BME280;6917;52.194;9.894;2023-01-25T07:27:33;102252.97;;;-0.68;100.00
13690;BME280;6917;52.194;9.894;2023-01-25T07:30:00;102249.69;;;-0.63;100.00
13690;BME280;6917;52.194;9.894;2023-01-25T07:32:25;102247.25;;;-0.58;100.00
13690;BME280;6917;52.194;9.894;2023-01-25T07:34:51;102242.97;;;-0.52;100.00
13690;BME280;6917;52.194;9.894;2023-01-25T07:37:16;102252.81;;;-0.38;100.00
13690;BME280;6917;52.194;9.894;2023-01-25T07:39:42;102247.75;;;-0.48;100.00
13690;BME280;6917;52.194;9.894;2023-01-25T07:42:13;102249.69;;;-0.42;100.00
13690;BME280;6917;52.194;9.894;2023-01-25T07:44:39;102251.78;;;-0.37;100.00
13690;BME280;6917;52.194;9.894;2023-01-25T07:47:04;102253.25;;;-0.35;100.00
13690;BME280;6917;52.194;9.894;2023-01-25T07:49:30;102253.19;;;-0.41;100.00
13690;BME280;6917;52.194;9.894;2023-01-25T07:51:55;102256.19;;;-0.51;100.00
13690;BME280;6917;52.194;9.894;2023-01-25T07:54:20;102252.50;;;-0.50;100.00
13690;BME280;6917;52.194;9.894;2023-01-25T07:56:46;102258.09;;;-0.45;100.00
13690;BME280;6917;52.194;9.894;2023-01-25T07:59:11;102252.50;;;-0.50;100.00
13690;BME280;6917;52.194;9.894;2023-01-25T08:01:38;102245.47;;;-0.51;100.00
13690;BME280;6917;52.194;9.894;2023-01-25T08:04:04;102257.63;;;-0.55;100.00
13690;BME280;6917;52.194;9.894;2023-01-25T08:06:31;102255.28;;;-0.58;100.00
13690;BME280;6917;52.194;9.894;2023-01-25T08:09:13;102251.34;;;-0.62;100.00
13690;BME280;6917;52.194;9.894;2023-01-25T08:11:40;102246.06;;;-0.55;100.00
13690;BME280;6917;52.194;9.894;2023-01-25T08:14:05;102247.94;;;-0.49;100.00
13690;BME280;6917;52.194;9.894;2023-01-25T08:16:32;102242.38;;;-0.48;100.00
13690;BME280;6917;52.194;9.894;2023-01-25T08:21:44;102247.31;;;-0.51;100.00
13690;BME280;6917;52.194;9.894;2023-01-25T08:24:09;102234.09;;;-0.53;100.00
13690;BME280;6917;52.194;9.894;2023-01-25T08:26:35;102232.63;;;-0.55;100.00
13690;BME280;6917;52.194;9.894;2023-01-25T08:29:01;102236.72;;;-0.60;100.00
13690;BME280;6917;52.194;9.894;2023-01-25T08:31:29;102231.09;;;-0.65;100.00
13690;BME280;6917;52.194;9.894;2023-01-25T08:33:56;102227.38;;;-0.64;100.00
13690;BME280;6917;52.194;9.894;2023-01-25T08:36:22;102229.25;;;-0.64;100.00
13690;BME280;6917;52.194;9.894;2023-01-25T08:38:56;102228.22;;;-0.63;100.00
13690;BME280;6917;52.194;9.894;2023-01-25T08:41:23;102227.19;;;-0.62;100.00
13690;BME280;6917;52.194;9.894;2023-01-25T08:43:50;102219.97;;;-0.62;100.00
13690;BME280;6917;52.194;9.894;2023-01-25T08:46:16;102211.03;;;-0.69;100.00
13690;BME280;6917;52.194;9.894;2023-01-25T08:48:42;102215.81;;;-0.64;100.00
13690;BME280;6917;52.194;9.894;2023-01-25T08:51:10;102214.38;;;-0.67;100.00
13690;BME280;6917;52.194;9.894;2023-01-25T08:53:36;102218.19;;;-0.76;100.00
13690;BME280;6917;52.194;9.894;2023-01-25T08:56:06;102209.19;;;-0.90;100.00
13690;BME280;6917;52.194;9.894;2023-01-25T08:58:32;102202.56;;;-0.94;100.00
13690;BME280;6917;52.194;9.894;2023-01-25T09:01:05;102203.38;;;-0.93;100.00
13690;BME280;6917;52.194;9.894;2023-01-25T09:03:34;102201.34;;;-0.91;100.00
13690;BME280;6917;52.194;9.894;2023-01-25T09:06:00;102191.81;;;-0.94;100.00
13690;BME280;6917;52.194;9.894;2023-01-25T09:08:25;102191.44;;;-0.91;100.00
13690;BME280;6917;52.194;9.894;2023-01-25T09:10:51;102191.88;;;-0.87;100.00
13690;BME280;6917;52.194;9.894;2023-01-25T09:13:16;102203.00;;;-0.90;100.00
13690;BME280;6917;52.194;9.894;2023-01-25T09:15:41;102198.25;;;-0.88;100.00
13690;BME280;6917;52.194;9.894;2023-01-25T09:18:07;102198.53;;;-0.83;100.00
13690;BME280;6917;52.194;9.894;2023-01-25T09:20:33;102194.19;;;-0.84;100.00
13690;BME280;6917;52.194;9.894;2023-01-25T09:22:58;102189.47;;;-0.82;100.00
13690;BME280;6917;52.194;9.894;2023-01-25T09:25:23;102181.81;;;-0.85;100.00
13690;BME280;6917;52.194;9.894;2023-01-25T09:27:49;102183.50;;;-0.77;100.00
13690;BME280;6917;52.194;9.894;2023-01-25T09:30:16;102187.28;;;-0.72;100.00
13690;BME280;6917;52.194;9.894;2023-01-25T09:32:42;102190.97;;;-0.73;100.00
13690;BME280;6917;52.194;9.894;2023-01-25T09:35:07;102195.25;;;-0.78;100.00
13690;BME280;6917;52.194;9.894;2023-01-25T09:37:32;102183.47;;;-0.84;100.00
13690;BME280;6917;52.194;9.894;2023-01-25T09:39:58;102177.69;;;-0.81;100.00
13690;BME280;6917;52.194;9.894;2023-01-25T09:43:52;102172.38;;;-0.74;100.00
13690;BME280;6917;52.194;9.894;2023-01-25T09:45:46;102174.09;;;-0.67;100.00
13690;BME280;6917;52.194;9.894;2023-01-25T09:48:21;102175.13;;;-0.68;100.00
13690;BME280;6917;52.194;9.894;2023-01-25T09:51:13;102166.19;;;-0.75;100.00
13690;BME280;6917;52.194;9.894;2023-01-25T09:53:48;102160.53;;;-0.86;100.00
13690;BME280;6917;52.194;9.894;2023-01-25T09:56:32;102144.97;;;-0.98;100.00
13690;BME280;6917;52.194;9.894;2023-01-25T09:59:03;102146.22;;;-0.94;100.00
13690;BME280;6917;52.194;9.894;2023-01-25T10:04:24;102133.31;;;-0.83;100.00
13690;BME280;6917;52.194;9.894;2023-01-25T10:06:56;102129.00;;;-0.78;100.00
13690;BME280;6917;52.194;9.894;2023-01-25T10:09:39;102136.88;;;-0.76;100.00
13690;BME280;6917;52.194;9.894;2023-01-25T10:12:16;102135.28;;;-0.71;100.00
13690;BME280;6917;52.194;9.894;2023-01-25T10:14:43;102128.25;;;-0.72;100.00
13690;BME280;6917;52.194;9.894;2023-01-25T10:17:17;102127.78;;;-0.75;100.00
13690;BME280;6917;52.194;9.894;2023-01-25T10:22:19;102115.47;;;-0.70;100.00
13690;BME280;6917;52.194;9.894;2023-01-25T10:25:22;102114.97;;;-0.80;100.00
13690;BME280;6917;52.194;9.894;2023-01-25T10:30:42;102097.00;;;-0.79;100.00
13690;BME280;6917;52.194;9.894;2023-01-25T10:33:17;102101.78;;;-0.75;100.00
13690;BME280;6917;52.194;9.894;2023-01-25T10:35:45;102098.72;;;-0.72;100.00
13690;BME280;6917;52.194;9.894;2023-01-25T10:40:47;102081.97;;;-0.74;100.00
13690;BME280;6917;52.194;9.894;2023-01-25T10:43:19;102086.31;;;-0.73;100.00
13690;BME280;6917;52.194;9.894;2023-01-25T10:45:45;102073.28;;;-0.76;100.00
13690;BME280;6917;52.194;9.894;2023-01-25T10:48:20;102075.22;;;-0.70;100.00
13690;BME280;6917;52.194;9.894;2023-01-25T10:50:54;102062.00;;;-0.71;100.00
13690;BME280;6917;52.194;9.894;2023-01-25T10:53:36;102061.41;;;-0.67;100.00
13690;BME280;6917;52.194;9.894;2023-01-25T10:56:13;102057.88;;;-0.67;100.00
13690;BME280;6917;52.194;9.894;2023-01-25T10:58:45;102057.81;;;-0.74;100.00
13690;BME280;6917;52.194;9.894;2023-01-25T11:01:34;102049.13;;;-0.82;100.00
13690;BME280;6917;52.194;9.894;2023-01-25T11:03:59;102057.94;;;-0.88;100.00
13690;BME280;6917;52.194;9.894;2023-01-25T11:06:36;102044.53;;;-0.88;100.00
13690;BME280;6917;52.194;9.894;2023-01-25T11:12:16;102036.03;;;-0.92;100.00
13690;BME280;6917;52.194;9.894;2023-01-25T11:14:46;102035.66;;;-0.89;100.00
13690;BME280;6917;52.194;9.894;2023-01-25T11:17:28;102024.72;;;-0.87;100.00
13690;BME280;6917;52.194;9.894;2023-01-25T11:20:14;102029.25;;;-0.88;100.00
13690;BME280;6917;52.194;9.894;2023-01-25T11:22:48;102027.13;;;-0.99;100.00
13690;BME280;6917;52.194;9.894;2023-01-25T11:25:24;102023.22;;;-0.97;100.00
13690;BME280;6917;52.194;9.894;2023-01-25T11:27:50;102016.22;;;-0.98;100.00
13690;BME280;6917;52.194;9.894;2023-01-25T11:30:17;102010.84;;;-0.98;100.00
13690;BME280;6917;52.194;9.894;2023-01-25T11:32:43;102013.88;;;-1.07;100.00
13690;BME280;6917;52.194;9.894;2023-01-25T11:35:14;102014.06;;;-1.09;100.00
13690;BME280;6917;52.194;9.894;2023-01-25T11:37:52;101995.91;;;-1.07;100.00
13690;BME280;6917;52.194;9.894;2023-01-25T11:40:47;101996.94;;;-1.08;100.00
13690;BME280;6917;52.194;9.894;2023-01-25T11:43:21;101990.97;;;-1.03;100.00
13690;BME280;6917;52.194;9.894;2023-01-25T11:52:02;101974.44;;;-1.13;100.00
13690;BME280;6917;52.194;9.894;2023-01-25T11:54:50;101955.88;;;-1.08;100.00
13690;BME280;6917;52.194;9.894;2023-01-25T12:06:32;101945.94;;;-0.80;100.00
13690;BME280;6917;52.194;9.894;2023-01-25T12:09:13;101936.22;;;-0.81;100.00
13690;BME280;6917;52.194;9.894;2023-01-25T12:17:02;101925.91;;;-0.84;100.00
13690;BME280;6917;52.194;9.894;2023-01-25T12:22:49;101900.72;;;-0.83;100.00
13690;BME280;6917;52.194;9.894;2023-01-25T12:25:24;101882.56;;;-0.81;100.00
13690;BME280;6917;52.194;9.894;2023-01-25T12:28:09;101882.38;;;-0.79;100.00
13690;BME280;6917;52.194;9.894;2023-01-25T12:30:44;101887.75;;;-0.79;100.00
13690;BME280;6917;52.194;9.894;2023-01-25T12:36:22;101875.91;;;-0.92;100.00
13690;BME280;6917;52.194;9.894;2023-01-25T12:39:00;101868.69;;;-0.91;100.00
13690;BME280;6917;52.194;9.894;2023-01-25T12:44:35;101845.38;;;-0.91;100.00
13690;BME280;6917;52.194;9.894;2023-01-25T12:47:37;101845.81;;;-0.87;100.00
13690;BME280;6917;52.194;9.894;2023-01-25T12:53:47;101856.94;;;-0.90;100.00
13690;BME280;6917;52.194;9.894;2023-01-25T12:55:54;101847.19;;;-1.04;100.00
13690;BME280;6917;52.194;9.894;2023-01-25T12:58:36;101836.88;;;-1.07;100.00
13690;BME280;6917;52.194;9.894;2023-01-25T13:01:24;101818.91;;;-1.13;100.00
13690;BME280;6917;52.194;9.894;2023-01-25T13:04:13;101830.84;;;-1.16;100.00
13690;BME280;6917;52.194;9.894;2023-01-25T13:06:59;101821.34;;;-1.18;100.00
13690;BME280;6917;52.194;9.894;2023-01-25T13:09:44;101812.28;;;-1.17;100.00
13690;BME280;6917;52.194;9.894;2023-01-25T13:12:15;101806.53;;;-1.08;100.00
13690;BME280;6917;52.194;9.894;2023-01-25T13:14:41;101788.41;;;-1.06;100.00
13690;BME280;6917;52.194;9.894;2023-01-25T13:19:41;101768.78;;;-1.06;100.00
13690;BME280;6917;52.194;9.894;2023-01-25T13:22:09;101763.03;;;-1.10;100.00
13690;BME280;6917;52.194;9.894;2023-01-25T13:27:27;101765.13;;;-0.99;100.00
13690;BME280;6917;52.194;9.894;2023-01-25T13:29:55;101767.00;;;-0.86;100.00
13690;BME280;6917;52.194;9.894;2023-01-25T13:42:22;101749.47;;;-0.75;100.00
13690;BME280;6917;52.194;9.894;2023-01-25T13:44:53;101743.28;;;-0.82;100.00
13690;BME280;6917;52.194;9.894;2023-01-25T13:47:25;101751.13;;;-0.81;100.00
13690;BME280;6917;52.194;9.894;2023-01-25T13:49:56;101745.13;;;-0.76;100.00
13690;BME280;6917;52.194;9.894;2023-01-25T13:52:25;101731.50;;;-0.81;100.00
13690;BME280;6917;52.194;9.894;2023-01-25T13:54:54;101733.56;;;-0.77;100.00
13690;BME280;6917;52.194;9.894;2023-01-25T13:57:26;101735.22;;;-0.76;100.00
13690;BME280;6917;52.194;9.894;2023-01-25T14:00:04;101735.84;;;-0.74;100.00
13690;BME280;6917;52.194;9.894;2023-01-25T14:02:31;101745.53;;;-0.79;100.00
13690;BME280;6917;52.194;9.894;2023-01-25T14:04:57;101745.53;;;-0.73;100.00
13690;BME280;6917;52.194;9.894;2023-01-25T14:07:29;101737.91;;;-0.76;100.00
13690;BME280;6917;52.194;9.894;2023-01-25T14:10:00;101729.00;;;-0.90;100.00
13690;BME280;6917;52.194;9.894;2023-01-25T14:12:38;101737.28;;;-0.84;100.00
13690;BME280;6917;52.194;9.894;2023-01-25T14:15:21;101737.31;;;-0.71;100.00